sensor_id;sensor_type;location;lat;lon;timestamp;pressure;altitude;pressure_sealevel;temperature;humidity
63306;BME280;50735;52.060;1.248;2022-09-09T00:00:48;100046.26;;;15.83;61.34
63306;BME280;50735;52.060;1.248;2022-09-09T00:03:18;100042.83;;;15.40;61.38
63306;BME280;50735;52.060;1.248;2022-09-09T00:05:52;100041.68;;;15.57;61.50
63306;BME280;50735;52.060;1.248;2022-09-09T00:08:32;100036.41;;;15.42;62.51
63306;BME280;50735;52.060;1.248;2022-09-09T00:11:04;100029.72;;;15.16;62.56
63306;BME280;50735;52.060;1.248;2022-09-09T00:13:34;100030.91;;;15.57;61.67
63306;BME280;50735;52.060;1.248;2022-09-09T00:16:09;100030.07;;;15.11;62.77
63306;BME280;50735;52.060;1.248;2022-09-09T00:18:46;100025.72;;;15.40;62.39
63306;BME280;50735;52.060;1.248;2022-09-09T00:21:16;100022.28;;;15.19;62.42
63306;BME280;50735;52.060;1.248;2022-09-09T00:23:47;100020.40;;;15.19;62.19
63306;BME280;50735;52.060;1.248;2022-09-09T00:26:22;100018.81;;;15.07;62.63
63306;BME280;50735;52.060;1.248;2022-09-09T00:28:57;100014.17;;;15.38;62.24
63306;BME280;50735;52.060;1.248;2022-09-09T00:31:29;100004.41;;;15.54;61.62
63306;BME280;50735;52.060;1.248;2022-09-09T00:34:00;99999.40;;;15.60;61.58
63306;BME280;50735;52.060;1.248;2022-09-09T00:36:31;99998.49;;;15.48;61.74
63306;BME280;50735;52.060;1.248;2022-09-09T00:39:00;99995.92;;;15.55;61.53
63306;BME280;50735;52.060;1.248;2022-09-09T00:41:36;100001.35;;;15.44;61.23
63306;BME280;50735;52.060;1.248;2022-09-09T00:44:25;99995.98;;;15.68;61.30
63306;BME280;50735;52.060;1.248;2022-09-09T00:47:03;99996.63;;;15.78;61.26
63306;BME280;50735;52.060;1.248;2022-09-09T00:49:41;100000.49;;;15.37;62.36
63306;BME280;50735;52.060;1.248;2022-09-09T00:52:23;99998.78;;;15.55;61.80
63306;BME280;50735;52.060;1.248;2022-09-09T00:55:02;100001.47;;;15.54;61.87
63306;BME280;50735;52.060;1.248;2022-09-09T00:57:32;100004.35;;;15.47;62.07
63306;BME280;50735;52.060;1.248;2022-09-09T01:00:17;100003.88;;;15.45;62.17
63306;BME280;50735;52.060;1.248;2022-09-09T01:02:53;99998.83;;;15.58;61.78
63306;BME280;50735;52.060;1.248;2022-09-09T01:05:29;99998.43;;;15.70;61.53
63306;BME280;50735;52.060;1.248;2022-09-09T01:07:58;99993.86;;;15.63;61.50
63306;BME280;50735;52.060;1.248;2022-09-09T01:10:33;99993.51;;;15.80;60.79
63306;BME280;50735;52.060;1.248;2022-09-09T01:13:11;99992.20;;;15.95;60.38
63306;BME280;50735;52.060;1.248;2022-09-09T01:15:42;99992.92;;;16.10;60.04
63306;BME280;50735;52.060;1.248;2022-09-09T01:18:13;99989.44;;;16.15;59.83
63306;BME280;50735;52.060;1.248;2022-09-09T01:20:49;99988.96;;;16.11;59.80
63306;BME280;50735;52.060;1.248;2022-09-09T01:23:42;99987.71;;;16.07;59.86
63306;BME280;50735;52.060;1.248;2022-09-09T01:26:18;99985.46;;;15.58;60.60
63306;BME280;50735;52.060;1.248;2022-09-09T01:28:48;99982.84;;;15.84;60.45
63306;BME280;50735;52.060;1.248;2022-09-09T01:31:19;99980.78;;;15.74;60.04
63306;BME280;50735;52.060;1.248;2022-09-09T01:33:47;99977.49;;;16.12;59.57
63306;BME280;50735;52.060;1.248;2022-09-09T01:36:20;99973.72;;;16.08;59.98
63306;BME280;50735;52.060;1.248;2022-09-09T01:38:51;99971.41;;;15.81;60.05
63306;BME280;50735;52.060;1.248;2022-09-09T01:41:18;99969.79;;;16.10;59.55
63306;BME280;50735;52.060;1.248;2022-09-09T01:43:46;99963.80;;;15.93;59.30
63306;BME280;50735;52.060;1.248;2022-09-09T01:46:13;99953.63;;;16.21;59.11
63306;BME280;50735;52.060;1.248;2022-09-09T01:48:42;99949.75;;;16.06;59.00
63306;BME280;50735;52.060;1.248;2022-09-09T01:51:10;99945.61;;;16.13;58.77
63306;BME280;50735;52.060;1.248;2022-09-09T01:53:38;99941.95;;;16.20;58.74
63306;BME280;50735;52.060;1.248;2022-09-09T01:56:14;99940.25;;;16.51;58.69
63306;BME280;50735;52.060;1.248;2022-09-09T01:58:54;99939.14;;;16.39;58.47
63306;BME280;50735;52.060;1.248;2022-09-09T02:01:35;99935.07;;;16.42;58.38
63306;BME280;50735;52.060;1.248;2022-09-09T02:04:17;99933.67;;;16.47;58.29
63306;BME280;50735;52.060;1.248;2022-09-09T02:06:46;99934.95;;;16.48;58.17
63306;BME280;50735;52.060;1.248;2022-09-09T02:09:18;99933.76;;;16.71;58.07
63306;BME280;50735;52.060;1.248;2022-09-09T02:11:47;99932.83;;;16.49;58.02
63306;BME280;50735;52.060;1.248;2022-09-09T02:14:25;99927.55;;;16.47;57.97
63306;BME280;50735;52.060;1.248;2022-09-09T02:16:56;99926.58;;;16.45;58.03
63306;BME280;50735;52.060;1.248;2022-09-09T02:19:27;99923.30;;;16.62;57.90
63306;BME280;50735;52.060;1.248;2022-09-09T02:21:58;99920.50;;;16.58;57.89
63306;BME280;50735;52.060;1.248;2022-09-09T02:24:27;99921.99;;;16.15;57.91
63306;BME280;50735;52.060;1.248;2022-09-09T02:26:57;99920.61;;;16.53;57.95
63306;BME280;50735;52.060;1.248;2022-09-09T02:29:27;99919.54;;;16.26;57.89
63306;BME280;50735;52.060;1.248;2022-09-09T02:31:58;99924.72;;;16.47;57.88
63306;BME280;50735;52.060;1.248;2022-09-09T02:34:27;99927.51;;;16.23;57.89
63306;BME280;50735;52.060;1.248;2022-09-09T02:36:57;99931.26;;;16.23;57.98
63306;BME280;50735;52.060;1.248;2022-09-09T02:39:25;99932.54;;;16.05;58.00
63306;BME280;50735;52.060;1.248;2022-09-09T02:41:52;99933.42;;;16.23;58.11
63306;BME280;50735;52.060;1.248;2022-09-09T02:44:19;99927.63;;;16.46;58.22
63306;BME280;50735;52.060;1.248;2022-09-09T02:47:00;99928.02;;;16.21;58.14
63306;BME280;50735;52.060;1.248;2022-09-09T02:49:40;99926.55;;;16.44;58.23
63306;BME280;50735;52.060;1.248;2022-09-09T02:52:14;99926.28;;;16.45;58.16
63306;BME280;50735;52.060;1.248;2022-09-09T02:54:42;99924.25;;;16.45;58.09
63306;BME280;50735;52.060;1.248;2022-09-09T02:57:11;99924.36;;;16.43;58.17
63306;BME280;50735;52.060;1.248;2022-09-09T02:59:39;99923.10;;;16.42;58.25
63306;BME280;50735;52.060;1.248;2022-09-09T03:02:06;99924.67;;;16.42;58.38
63306;BME280;50735;52.060;1.248;2022-09-09T03:04:33;99926.41;;;16.42;58.27
63306;BME280;50735;52.060;1.248;2022-09-09T03:07:00;99922.08;;;16.41;58.30
63306;BME280;50735;52.060;1.248;2022-09-09T03:09:27;99922.67;;;16.19;58.27
63306;BME280;50735;52.060;1.248;2022-09-09T03:11:54;99919.25;;;16.40;58.22
63306;BME280;50735;52.060;1.248;2022-09-09T03:14:20;99919.33;;;16.39;58.31
63306;BME280;50735;52.060;1.248;2022-09-09T03:16:48;99919.14;;;16.14;58.27
63306;BME280;50735;52.060;1.248;2022-09-09T03:19:14;99917.98;;;16.35;58.44
63306;BME280;50735;52.060;1.248;2022-09-09T03:21:41;99916.90;;;16.28;58.83
63306;BME280;50735;52.060;1.248;2022-09-09T03:24:07;99914.34;;;16.28;58.61
63306;BME280;50735;52.060;1.248;2022-09-09T03:26:34;99913.25;;;16.05;58.45
63306;BME280;50735;52.060;1.248;2022-09-09T03:29:00;99911.52;;;16.25;58.32
63306;BME280;50735;52.060;1.248;2022-09-09T03:31:27;99911.56;;;16.22;58.26
63306;BME280;50735;52.060;1.248;2022-09-09T03:33:54;99910.07;;;16.19;58.37
63306;BME280;50735;52.060;1.248;2022-09-09T03:36:21;99910.17;;;16.19;58.30
63306;BME280;50735;52.060;1.248;2022-09-09T03:38:48;99905.46;;;16.19;58.29
63306;BME280;50735;52.060;1.248;2022-09-09T03:41:14;99902.21;;;16.18;58.72
63306;BME280;50735;52.060;1.248;2022-09-09T03:43:41;99900.95;;;16.15;58.46
63306;BME280;50735;52.060;1.248;2022-09-09T03:46:07;99898.29;;;16.15;58.39
63306;BME280;50735;52.060;1.248;2022-09-09T03:48:34;99902.42;;;16.17;58.40
63306;BME280;50735;52.060;1.248;2022-09-09T03:51:00;99904.91;;;16.17;58.52
63306;BME280;50735;52.060;1.248;2022-09-09T03:53:27;99907.59;;;16.19;58.62
63306;BME280;50735;52.060;1.248;2022-09-09T03:55:56;99903.47;;;15.95;59.06
63306;BME280;50735;52.060;1.248;2022-09-09T03:58:24;99899.95;;;15.92;59.24
63306;BME280;50735;52.060;1.248;2022-09-09T04:00:55;99897.71;;;15.86;59.54
63306;BME280;50735;52.060;1.248;2022-09-09T04:03:23;99897.61;;;15.84;59.08
63306;BME280;50735;52.060;1.248;2022-09-09T04:05:50;99902.39;;;15.89;59.02
63306;BME280;50735;52.060;1.248;2022-09-09T04:08:17;99906.90;;;15.95;59.06
63306;BME280;50735;52.060;1.248;2022-09-09T04:10:45;99909.95;;;15.91;59.41
63306;BME280;50735;52.060;1.248;2022-09-09T04:13:12;99912.94;;;15.97;59.36
63306;BME280;50735;52.060;1.248;2022-09-09T04:15:38;99916.81;;;15.93;59.91
63306;BME280;50735;52.060;1.248;2022-09-09T04:18:05;99916.51;;;15.93;59.83
63306;BME280;50735;52.060;1.248;2022-09-09T04:20:32;99919.74;;;15.98;59.61
63306;BME280;50735;52.060;1.248;2022-09-09T04:22:59;99919.90;;;15.98;59.98
63306;BME280;50735;52.060;1.248;2022-09-09T04:25:27;99918.17;;;15.94;60.04
63306;BME280;50735;52.060;1.248;2022-09-09T04:27:54;99917.65;;;15.60;60.55
63306;BME280;50735;52.060;1.248;2022-09-09T04:30:21;99912.07;;;15.50;60.84
63306;BME280;50735;52.060;1.248;2022-09-09T04:32:49;99909.53;;;15.53;61.19
63306;BME280;50735;52.060;1.248;2022-09-09T04:35:15;99906.57;;;15.51;60.62
63306;BME280;50735;52.060;1.248;2022-09-09T04:37:43;99908.12;;;15.60;60.24
63306;BME280;50735;52.060;1.248;2022-09-09T04:40:10;99914.55;;;15.66;60.03
63306;BME280;50735;52.060;1.248;2022-09-09T04:42:37;99917.07;;;15.76;59.86
63306;BME280;50735;52.060;1.248;2022-09-09T04:45:04;99923.33;;;16.02;59.80
63306;BME280;50735;52.060;1.248;2022-09-09T04:47:32;99918.45;;;15.91;59.87
63306;BME280;50735;52.060;1.248;2022-09-09T04:49:59;99919.50;;;15.90;60.45
63306;BME280;50735;52.060;1.248;2022-09-09T04:52:26;99920.52;;;15.99;60.31
63306;BME280;50735;52.060;1.248;2022-09-09T04:54:52;99917.04;;;15.81;59.98
63306;BME280;50735;52.060;1.248;2022-09-09T04:57:19;99915.37;;;15.83;59.78
63306;BME280;50735;52.060;1.248;2022-09-09T04:59:46;99916.66;;;15.87;59.66
63306;BME280;50735;52.060;1.248;2022-09-09T05:02:13;99919.61;;;15.87;59.65
63306;BME280;50735;52.060;1.248;2022-09-09T05:04:40;99919.97;;;15.87;59.74
63306;BME280;50735;52.060;1.248;2022-09-09T05:07:07;99922.36;;;15.84;59.98
63306;BME280;50735;52.060;1.248;2022-09-09T05:09:34;99918.41;;;16.01;59.59
63306;BME280;50735;52.060;1.248;2022-09-09T05:12:01;99912.66;;;15.89;59.48
63306;BME280;50735;52.060;1.248;2022-09-09T05:14:27;99912.10;;;15.90;59.50
63306;BME280;50735;52.060;1.248;2022-09-09T05:16:55;99912.15;;;15.87;59.59
63306;BME280;50735;52.060;1.248;2022-09-09T05:19:21;99907.61;;;15.81;59.57
63306;BME280;50735;52.060;1.248;2022-09-09T05:21:48;99906.06;;;15.84;59.47
63306;BME280;50735;52.060;1.248;2022-09-09T05:24:16;99902.67;;;15.89;59.81
63306;BME280;50735;52.060;1.248;2022-09-09T05:26:43;99904.21;;;15.94;59.42
63306;BME280;50735;52.060;1.248;2022-09-09T05:29:10;99905.82;;;15.99;59.56
63306;BME280;50735;52.060;1.248;2022-09-09T05:31:37;99905.16;;;16.01;59.19
63306;BME280;50735;52.060;1.248;2022-09-09T05:34:04;99905.04;;;16.02;59.23
63306;BME280;50735;52.060;1.248;2022-09-09T05:36:31;99907.56;;;16.02;59.43
63306;BME280;50735;52.060;1.248;2022-09-09T05:38:57;99909.88;;;15.91;59.39
63306;BME280;50735;52.060;1.248;2022-09-09T05:41:24;99912.37;;;16.01;59.26
63306;BME280;50735;52.060;1.248;2022-09-09T05:43:50;99924.08;;;15.70;59.68
63306;BME280;50735;52.060;1.248;2022-09-09T05:46:19;99924.63;;;15.51;60.35
63306;BME280;50735;52.060;1.248;2022-09-09T05:48:47;99924.02;;;15.25;60.41
63306;BME280;50735;52.060;1.248;2022-09-09T05:51:16;99926.97;;;15.52;60.25
63306;BME280;50735;52.060;1.248;2022-09-09T05:53:44;99928.50;;;15.68;59.88
63306;BME280;50735;52.060;1.248;2022-09-09T05:56:13;99930.54;;;15.78;59.66
63306;BME280;50735;52.060;1.248;2022-09-09T05:58:40;99930.32;;;15.91;59.60
63306;BME280;50735;52.060;1.248;2022-09-09T06:01:09;99929.31;;;16.08;59.17
63306;BME280;50735;52.060;1.248;2022-09-09T06:03:38;99930.51;;;16.12;59.26
63306;BME280;50735;52.060;1.248;2022-09-09T06:06:07;99932.02;;;16.12;59.18
63306;BME280;50735;52.060;1.248;2022-09-09T06:08:37;99934.67;;;16.22;59.17
63306;BME280;50735;52.060;1.248;2022-09-09T06:11:06;99934.54;;;16.28;59.14
63306;BME280;50735;52.060;1.248;2022-09-09T06:13:33;99937.36;;;16.10;59.19
63306;BME280;50735;52.060;1.248;2022-09-09T06:16:01;99940.98;;;16.34;59.31
63306;BME280;50735;52.060;1.248;2022-09-09T06:18:27;99943.73;;;16.09;59.01
63306;BME280;50735;52.060;1.248;2022-09-09T06:20:56;99947.81;;;15.85;59.50
63306;BME280;50735;52.060;1.248;2022-09-09T06:23:24;99949.46;;;15.96;59.84
63306;BME280;50735;52.060;1.248;2022-09-09T06:25:51;99955.25;;;15.88;59.92
63306;BME280;50735;52.060;1.248;2022-09-09T06:28:18;99958.73;;;15.71;60.58
63306;BME280;50735;52.060;1.248;2022-09-09T06:30:46;99958.88;;;15.83;60.10
63306;BME280;50735;52.060;1.248;2022-09-09T06:33:13;99964.36;;;15.76;60.67
63306;BME280;50735;52.060;1.248;2022-09-09T06:35:39;99964.77;;;15.80;60.20
63306;BME280;50735;52.060;1.248;2022-09-09T06:38:06;99966.33;;;15.89;59.95
63306;BME280;50735;52.060;1.248;2022-09-09T06:40:32;99967.65;;;15.95;60.11
63306;BME280;50735;52.060;1.248;2022-09-09T06:43:00;99972.34;;;15.95;60.51
63306;BME280;50735;52.060;1.248;2022-09-09T06:45:27;99972.66;;;16.00;60.34
63306;BME280;50735;52.060;1.248;2022-09-09T06:47:54;99978.39;;;15.79;60.05
63306;BME280;50735;52.060;1.248;2022-09-09T06:50:21;99980.61;;;15.61;61.31
63306;BME280;50735;52.060;1.248;2022-09-09T06:52:48;99981.02;;;15.59;61.19
63306;BME280;50735;52.060;1.248;2022-09-09T06:55:15;99985.20;;;15.66;60.97
63306;BME280;50735;52.060;1.248;2022-09-09T06:57:43;99986.57;;;15.80;61.10
63306;BME280;50735;52.060;1.248;2022-09-09T07:00:11;99990.89;;;15.43;61.16
63306;BME280;50735;52.060;1.248;2022-09-09T07:02:37;99993.73;;;15.51;61.16
63306;BME280;50735;52.060;1.248;2022-09-09T07:05:05;99996.97;;;15.82;60.95
63306;BME280;50735;52.060;1.248;2022-09-09T07:07:32;100002.16;;;15.84;60.76
63306;BME280;50735;52.060;1.248;2022-09-09T07:09:59;100002.48;;;15.72;60.49
63306;BME280;50735;52.060;1.248;2022-09-09T07:12:25;100004.02;;;15.79;60.24
63306;BME280;50735;52.060;1.248;2022-09-09T07:14:52;100004.86;;;15.96;60.79
63306;BME280;50735;52.060;1.248;2022-09-09T07:17:19;100007.23;;;16.01;60.44
63306;BME280;50735;52.060;1.248;2022-09-09T07:19:46;100008.25;;;16.06;60.72
63306;BME280;50735;52.060;1.248;2022-09-09T07:22:13;100009.65;;;16.11;60.22
63306;BME280;50735;52.060;1.248;2022-09-09T07:24:40;100015.05;;;15.50;61.26
63306;BME280;50735;52.060;1.248;2022-09-09T07:27:07;100016.00;;;15.59;61.36
63306;BME280;50735;52.060;1.248;2022-09-09T07:29:33;100017.57;;;15.71;61.46
63306;BME280;50735;52.060;1.248;2022-09-09T07:32:00;100018.87;;;15.61;61.69
63306;BME280;50735;52.060;1.248;2022-09-09T07:34:27;100022.23;;;15.57;61.51
63306;BME280;50735;52.060;1.248;2022-09-09T07:36:54;100019.95;;;15.73;61.84
63306;BME280;50735;52.060;1.248;2022-09-09T07:39:21;100026.51;;;15.80;61.14
63306;BME280;50735;52.060;1.248;2022-09-09T07:41:48;100025.70;;;15.56;61.63
63306;BME280;50735;52.060;1.248;2022-09-09T07:44:18;100029.82;;;15.74;61.28
63306;BME280;50735;52.060;1.248;2022-09-09T07:46:45;100033.58;;;15.71;61.31
63306;BME280;50735;52.060;1.248;2022-09-09T07:49:12;100037.26;;;15.16;61.83
63306;BME280;50735;52.060;1.248;2022-09-09T07:51:41;100039.12;;;15.23;62.14
63306;BME280;50735;52.060;1.248;2022-09-09T07:54:11;100044.72;;;15.40;61.71
63306;BME280;50735;52.060;1.248;2022-09-09T07:56:39;100045.74;;;15.38;61.48
63306;BME280;50735;52.060;1.248;2022-09-09T07:59:07;100049.18;;;15.35;61.55
63306;BME280;50735;52.060;1.248;2022-09-09T08:01:36;100050.34;;;15.48;61.16
63306;BME280;50735;52.060;1.248;2022-09-09T08:04:05;100053.30;;;15.65;61.33
63306;BME280;50735;52.060;1.248;2022-09-09T08:06:37;100053.38;;;15.27;62.04
63306;BME280;50735;52.060;1.248;2022-09-09T08:09:06;100053.69;;;15.49;61.70
63306;BME280;50735;52.060;1.248;2022-09-09T08:11:34;100054.93;;;15.57;60.82
63306;BME280;50735;52.060;1.248;2022-09-09T08:14:02;100055.76;;;15.61;61.28
63306;BME280;50735;52.060;1.248;2022-09-09T08:16:31;100063.12;;;15.74;61.11
63306;BME280;50735;52.060;1.248;2022-09-09T08:18:58;100067.77;;;15.90;61.14
63306;BME280;50735;52.060;1.248;2022-09-09T08:21:27;100069.22;;;15.81;61.07
63306;BME280;50735;52.060;1.248;2022-09-09T08:23:55;100074.22;;;15.80;61.14
63306;BME280;50735;52.060;1.248;2022-09-09T08:26:24;100076.04;;;15.73;61.37
63306;BME280;50735;52.060;1.248;2022-09-09T08:28:54;100077.14;;;15.72;60.75
63306;BME280;50735;52.060;1.248;2022-09-09T08:31:23;100079.63;;;15.49;61.53
63306;BME280;50735;52.060;1.248;2022-09-09T08:33:50;100082.57;;;15.73;61.18
63306;BME280;50735;52.060;1.248;2022-09-09T08:36:19;100084.69;;;15.84;60.92
63306;BME280;50735;52.060;1.248;2022-09-09T08:38:47;100085.32;;;15.65;60.96
63306;BME280;50735;52.060;1.248;2022-09-09T08:41:35;100086.32;;;15.70;60.95
63306;BME280;50735;52.060;1.248;2022-09-09T08:44:07;100086.97;;;15.93;61.09
63306;BME280;50735;52.060;1.248;2022-09-09T08:46:45;100088.15;;;16.09;60.51
63306;BME280;50735;52.060;1.248;2022-09-09T08:49:25;100088.53;;;15.79;60.24
63306;BME280;50735;52.060;1.248;2022-09-09T08:52:02;100093.41;;;16.07;60.71
63306;BME280;50735;52.060;1.248;2022-09-09T08:54:33;100098.76;;;16.10;60.68
63306;BME280;50735;52.060;1.248;2022-09-09T08:57:00;100100.70;;;15.89;60.75
63306;BME280;50735;52.060;1.248;2022-09-09T08:59:27;100105.83;;;16.06;60.23
63306;BME280;50735;52.060;1.248;2022-09-09T09:02:00;100110.38;;;16.26;59.65
63306;BME280;50735;52.060;1.248;2022-09-09T09:04:38;100113.59;;;16.13;59.66
63306;BME280;50735;52.060;1.248;2022-09-09T09:07:18;100115.73;;;15.81;60.19
63306;BME280;50735;52.060;1.248;2022-09-09T09:09:57;100118.04;;;15.62;59.90
63306;BME280;50735;52.060;1.248;2022-09-09T09:12:28;100121.75;;;15.92;59.10
63306;BME280;50735;52.060;1.248;2022-09-09T09:14:56;100126.02;;;16.25;59.65
63306;BME280;50735;52.060;1.248;2022-09-09T09:17:27;100128.67;;;15.99;59.03
63306;BME280;50735;52.060;1.248;2022-09-09T09:19:55;100130.84;;;16.06;60.12
63306;BME280;50735;52.060;1.248;2022-09-09T09:22:22;100132.39;;;15.84;60.08
63306;BME280;50735;52.060;1.248;2022-09-09T09:24:55;100135.50;;;15.86;60.04
63306;BME280;50735;52.060;1.248;2022-09-09T09:27:31;100140.46;;;15.93;59.23
63306;BME280;50735;52.060;1.248;2022-09-09T09:29:59;100143.44;;;15.77;59.67
63306;BME280;50735;52.060;1.248;2022-09-09T09:32:30;100146.89;;;15.97;59.52
63306;BME280;50735;52.060;1.248;2022-09-09T09:35:02;100147.41;;;15.88;59.17
63306;BME280;50735;52.060;1.248;2022-09-09T09:37:34;100155.75;;;16.41;58.76
63306;BME280;50735;52.060;1.248;2022-09-09T09:40:10;100156.39;;;16.27;58.53
63306;BME280;50735;52.060;1.248;2022-09-09T09:42:38;100155.82;;;16.58;58.16
63306;BME280;50735;52.060;1.248;2022-09-09T09:45:13;100160.86;;;16.57;58.23
63306;BME280;50735;52.060;1.248;2022-09-09T09:47:41;100167.08;;;16.37;58.49
63306;BME280;50735;52.060;1.248;2022-09-09T09:50:17;100167.35;;;16.60;57.67
63306;BME280;50735;52.060;1.248;2022-09-09T09:52:53;100171.24;;;16.51;58.01
63306;BME280;50735;52.060;1.248;2022-09-09T09:55:21;100171.57;;;16.84;57.24
63306;BME280;50735;52.060;1.248;2022-09-09T09:57:48;100172.87;;;16.64;57.07
63306;BME280;50735;52.060;1.248;2022-09-09T10:00:17;100169.82;;;16.75;56.79
63306;BME280;50735;52.060;1.248;2022-09-09T10:02:45;100174.48;;;16.91;56.35
63306;BME280;50735;52.060;1.248;2022-09-09T10:05:15;100174.47;;;17.34;55.77
63306;BME280;50735;52.060;1.248;2022-09-09T10:07:43;100178.57;;;16.89;55.55
63306;BME280;50735;52.060;1.248;2022-09-09T10:10:13;100183.01;;;17.22;56.09
63306;BME280;50735;52.060;1.248;2022-09-09T10:12:51;100180.44;;;16.97;55.51
63306;BME280;50735;52.060;1.248;2022-09-09T10:15:34;100186.51;;;16.51;56.26
63306;BME280;50735;52.060;1.248;2022-09-09T10:18:16;100190.18;;;16.29;57.26
63306;BME280;50735;52.060;1.248;2022-09-09T10:20:51;100191.45;;;16.55;56.80
63306;BME280;50735;52.060;1.248;2022-09-09T10:23:41;100191.68;;;16.81;55.97
63306;BME280;50735;52.060;1.248;2022-09-09T10:26:22;100205.10;;;16.68;56.40
63306;BME280;50735;52.060;1.248;2022-09-09T10:29:04;100205.56;;;16.64;56.43
63306;BME280;50735;52.060;1.248;2022-09-09T10:31:41;100207.34;;;16.63;56.70
63306;BME280;50735;52.060;1.248;2022-09-09T10:34:17;100215.24;;;16.33;57.10
63306;BME280;50735;52.060;1.248;2022-09-09T10:36:48;100214.52;;;16.55;56.75
63306;BME280;50735;52.060;1.248;2022-09-09T10:39:25;100213.35;;;16.55;55.87
63306;BME280;50735;52.060;1.248;2022-09-09T10:42:03;100213.38;;;17.22;56.22
63306;BME280;50735;52.060;1.248;2022-09-09T10:44:42;100213.44;;;17.26;55.51
63306;BME280;50735;52.060;1.248;2022-09-09T10:47:25;100213.53;;;17.21;54.61
63306;BME280;50735;52.060;1.248;2022-09-09T10:50:10;100216.73;;;17.39;53.30
63306;BME280;50735;52.060;1.248;2022-09-09T10:52:47;100217.09;;;17.29;53.55
63306;BME280;50735;52.060;1.248;2022-09-09T10:55:17;100219.58;;;17.56;53.35
63306;BME280;50735;52.060;1.248;2022-09-09T10:57:46;100210.25;;;18.22;52.89
63306;BME280;50735;52.060;1.248;2022-09-09T11:00:17;100209.98;;;18.56;52.24
63306;BME280;50735;52.060;1.248;2022-09-09T11:02:45;100216.36;;;18.54;50.48
63306;BME280;50735;52.060;1.248;2022-09-09T11:05:19;100215.24;;;18.16;51.67
63306;BME280;50735;52.060;1.248;2022-09-09T11:07:49;100220.17;;;17.93;52.11
63306;BME280;50735;52.060;1.248;2022-09-09T11:10:23;100230.61;;;17.38;53.28
63306;BME280;50735;52.060;1.248;2022-09-09T11:12:54;100230.81;;;17.43;53.52
63306;BME280;50735;52.060;1.248;2022-09-09T11:15:28;100235.27;;;17.42;53.71
63306;BME280;50735;52.060;1.248;2022-09-09T11:18:01;100241.96;;;17.40;53.41
63306;BME280;50735;52.060;1.248;2022-09-09T11:20:28;100239.19;;;17.50;53.07
63306;BME280;50735;52.060;1.248;2022-09-09T11:22:59;100246.43;;;17.63;52.72
63306;BME280;50735;52.060;1.248;2022-09-09T11:25:31;100244.57;;;17.75;53.00
63306;BME280;50735;52.060;1.248;2022-09-09T11:28:16;100245.33;;;17.91;54.08
63306;BME280;50735;52.060;1.248;2022-09-09T11:30:52;100242.37;;;17.91;52.53
63306;BME280;50735;52.060;1.248;2022-09-09T11:33:37;100250.65;;;17.58;52.75
63306;BME280;50735;52.060;1.248;2022-09-09T11:36:22;100252.86;;;17.28;54.02
63306;BME280;50735;52.060;1.248;2022-09-09T11:38:58;100251.68;;;17.36;53.07
63306;BME280;50735;52.060;1.248;2022-09-09T11:41:34;100256.94;;;17.84;51.66
63306;BME280;50735;52.060;1.248;2022-09-09T11:44:10;100255.01;;;18.35;51.97
63306;BME280;50735;52.060;1.248;2022-09-09T11:46:39;100252.21;;;18.84;51.27
63306;BME280;50735;52.060;1.248;2022-09-09T11:49:26;100257.16;;;18.87;49.71
63306;BME280;50735;52.060;1.248;2022-09-09T11:51:54;100257.96;;;18.81;49.59
63306;BME280;50735;52.060;1.248;2022-09-09T11:54:29;100256.10;;;19.19;48.94
63306;BME280;50735;52.060;1.248;2022-09-09T11:56:56;100261.49;;;18.87;48.65
63306;BME280;50735;52.060;1.248;2022-09-09T11:59:25;100252.54;;;19.77;47.54
63306;BME280;50735;52.060;1.248;2022-09-09T12:01:55;100258.75;;;20.09;46.18
63306;BME280;50735;52.060;1.248;2022-09-09T12:04:32;100257.34;;;20.21;46.17
63306;BME280;50735;52.060;1.248;2022-09-09T12:07:02;100264.73;;;20.04;45.20
63306;BME280;50735;52.060;1.248;2022-09-09T12:09:36;100264.41;;;19.62;45.99
63306;BME280;50735;52.060;1.248;2022-09-09T12:12:22;100269.56;;;20.07;45.98
63306;BME280;50735;52.060;1.248;2022-09-09T12:15:26;100265.57;;;20.62;45.37
63306;BME280;50735;52.060;1.248;2022-09-09T12:17:54;100267.04;;;20.60;44.12
63306;BME280;50735;52.060;1.248;2022-09-09T12:20:23;100270.90;;;20.88;44.68
63306;BME280;50735;52.060;1.248;2022-09-09T12:23:13;100272.96;;;20.38;43.71
63306;BME280;50735;52.060;1.248;2022-09-09T12:25:54;100276.34;;;19.56;44.55
63306;BME280;50735;52.060;1.248;2022-09-09T12:28:31;100276.60;;;19.52;45.31
63306;BME280;50735;52.060;1.248;2022-09-09T12:31:06;100275.15;;;19.50;45.01
63306;BME280;50735;52.060;1.248;2022-09-09T12:33:36;100277.56;;;19.15;44.80
63306;BME280;50735;52.060;1.248;2022-09-09T12:36:04;100271.21;;;19.43;44.69
63306;BME280;50735;52.060;1.248;2022-09-09T12:38:36;100274.72;;;19.74;44.43
63306;BME280;50735;52.060;1.248;2022-09-09T12:41:05;100272.75;;;19.79;45.22
63306;BME280;50735;52.060;1.248;2022-09-09T12:43:31;100272.19;;;20.24;43.97
63306;BME280;50735;52.060;1.248;2022-09-09T12:46:01;100273.70;;;20.82;42.98
63306;BME280;50735;52.060;1.248;2022-09-09T12:48:34;100270.87;;;21.67;42.24
63306;BME280;50735;52.060;1.248;2022-09-09T12:51:03;100267.00;;;21.95;40.66
63306;BME280;50735;52.060;1.248;2022-09-09T12:53:34;100264.58;;;22.56;40.01
63306;BME280;50735;52.060;1.248;2022-09-09T12:56:05;100271.13;;;21.51;40.40
63306;BME280;50735;52.060;1.248;2022-09-09T12:58:33;100273.04;;;21.10;40.95
63306;BME280;50735;52.060;1.248;2022-09-09T13:01:01;100268.27;;;20.82;41.52
63306;BME280;50735;52.060;1.248;2022-09-09T13:03:29;100268.59;;;21.35;41.14
63306;BME280;50735;52.060;1.248;2022-09-09T13:05:58;100265.27;;;22.11;39.71
63306;BME280;50735;52.060;1.248;2022-09-09T13:08:26;100267.00;;;22.06;39.13
63306;BME280;50735;52.060;1.248;2022-09-09T13:10:55;100263.80;;;22.42;39.37
63306;BME280;50735;52.060;1.248;2022-09-09T13:13:26;100266.68;;;22.33;38.50